THY3RU GMMN-LTFM
Flight info
| Callsign | THY3RU |
|---|---|
| Flight time | 4h 2m |
| Altitude | 38000 |
| Route | SADIC UR975 FES UA411 ORSUP UZ888 DIMAO UW254 TUC DCT CBN UL869 TUPAL DCT MEGAN DCT LATAN UL869 KRK UM600 KOGIS DCT PEREN UN644 DIGTI UT162 DRAMO |
| Aircraft | A333/H-SDE3GHIJ2J3J5M1RVWXY/LB2D1 |
Departure
| Time | 2026-05-05 18:40 |
|---|---|
| Airport | Mohammed V International Airport (GMMN) |
Arrival
| Time | 2026-05-05 22:42 |
|---|---|
| Airport | İstanbul Airport (LTFM) |
| Time | Latitude | Longitude | Altitude | Speed | Heading |
|---|---|---|---|---|---|
| 2026-05-05 18:20 | 33.37254 | -7.58228 | 653 ft | 0 kts | 75° |
| 2026-05-05 18:27 | 33.37254 | -7.58229 | 653 ft | 0 kts | 75° |
| 2026-05-05 18:29 | 33.37252 | -7.58237 | 653 ft | 2 kts | 75° |
| 2026-05-05 18:29 | 33.37248 | -7.58255 | 653 ft | 2 kts | 82° |
| 2026-05-05 18:29 | 33.37248 | -7.58273 | 653 ft | 2 kts | 99° |
| 2026-05-05 18:30 | 33.37252 | -7.58291 | 653 ft | 2 kts | 112° |
| 2026-05-05 18:30 | 33.37259 | -7.58306 | 653 ft | 2 kts | 127° |
| 2026-05-05 18:30 | 33.37268 | -7.58320 | 653 ft | 2 kts | 141° |
| 2026-05-05 18:30 | 33.37281 | -7.58330 | 653 ft | 2 kts | 155° |
| 2026-05-05 18:31 | 33.37291 | -7.58334 | 653 ft | 0 kts | 165° |
| 2026-05-05 18:31 | 33.37294 | -7.58335 | 653 ft | 0 kts | 165° |
| 2026-05-05 18:33 | 33.37293 | -7.58335 | 653 ft | 0 kts | 165° |
| 2026-05-05 18:33 | 33.37284 | -7.58332 | 653 ft | 1 kts | 165° |
| 2026-05-05 18:33 | 33.37261 | -7.58325 | 653 ft | 5 kts | 165° |
| 2026-05-05 18:34 | 33.37208 | -7.58307 | 653 ft | 10 kts | 163° |
| 2026-05-05 18:34 | 33.37123 | -7.58277 | 652 ft | 15 kts | 163° |
| 2026-05-05 18:34 | 33.37013 | -7.58240 | 650 ft | 7 kts | 164° |
| 2026-05-05 18:34 | 33.36955 | -7.58244 | 650 ft | 9 kts | 226° |
| 2026-05-05 18:35 | 33.36927 | -7.58324 | 650 ft | 11 kts | 253° |
| 2026-05-05 18:35 | 33.36901 | -7.58427 | 650 ft | 13 kts | 247° |
| 2026-05-05 18:35 | 33.36809 | -7.58449 | 650 ft | 16 kts | 166° |
| 2026-05-05 18:35 | 33.36681 | -7.58405 | 651 ft | 21 kts | 164° |
| 2026-05-05 18:36 | 33.36522 | -7.58351 | 653 ft | 25 kts | 164° |
| 2026-05-05 18:36 | 33.36340 | -7.58289 | 656 ft | 28 kts | 163° |
| 2026-05-05 18:36 | 33.36146 | -7.58221 | 657 ft | 28 kts | 163° |
| 2026-05-05 18:36 | 33.35959 | -7.58157 | 659 ft | 26 kts | 163° |
| 2026-05-05 18:37 | 33.35782 | -7.58097 | 659 ft | 26 kts | 163° |
| 2026-05-05 18:37 | 33.35610 | -7.58038 | 660 ft | 24 kts | 163° |
| 2026-05-05 18:37 | 33.35448 | -7.57983 | 663 ft | 23 kts | 163° |
| 2026-05-05 18:37 | 33.35302 | -7.57947 | 664 ft | 19 kts | 191° |
| 2026-05-05 18:38 | 33.35233 | -7.58073 | 664 ft | 18 kts | 253° |
| 2026-05-05 18:38 | 33.35200 | -7.58212 | 663 ft | 9 kts | 256° |
| 2026-05-05 18:38 | 33.35211 | -7.58256 | 663 ft | 4 kts | 324° |
| 2026-05-05 18:38 | 33.35241 | -7.58271 | 663 ft | 4 kts | 342° |
| 2026-05-05 18:39 | 33.35333 | -7.58303 | 663 ft | 38 kts | 343° |
| 2026-05-05 18:39 | 33.35829 | -7.58475 | 660 ft | 105 kts | 342° |
| 2026-05-05 18:39 | 33.36720 | -7.58780 | 653 ft | 159 kts | 342° |
| 2026-05-05 18:39 | 33.37803 | -7.59154 | 1230 ft | 159 kts | 342° |
| 2026-05-05 18:40 | 33.38829 | -7.59482 | 1982 ft | 152 kts | 350° |
| 2026-05-05 18:40 | 33.39848 | -7.59722 | 2581 ft | 149 kts | 353° |
| 2026-05-05 18:40 | 33.40925 | -7.59721 | 2907 ft | 158 kts | 9° |
| 2026-05-05 18:40 | 33.42016 | -7.59314 | 3236 ft | 170 kts | 25° |
| 2026-05-05 18:41 | 33.43099 | -7.58622 | 3577 ft | 182 kts | 28° |
| 2026-05-05 18:41 | 33.44241 | -7.57811 | 3900 ft | 201 kts | 30° |
| 2026-05-05 18:41 | 33.45508 | -7.56842 | 4180 ft | 227 kts | 36° |
| 2026-05-05 18:41 | 33.46672 | -7.55448 | 4566 ft | 250 kts | 51° |
| 2026-05-05 18:42 | 33.47758 | -7.53768 | 5215 ft | 259 kts | 47° |
| 2026-05-05 18:42 | 33.48981 | -7.52159 | 5966 ft | 263 kts | 45° |
| 2026-05-05 18:42 | 33.50261 | -7.50605 | 6726 ft | 266 kts | 45° |
| 2026-05-05 18:42 | 33.51528 | -7.48961 | 7501 ft | 268 kts | 46° |
| 2026-05-05 18:43 | 33.52771 | -7.47280 | 8227 ft | 272 kts | 47° |
| 2026-05-05 18:43 | 33.54018 | -7.45554 | 8925 ft | 278 kts | 48° |
| 2026-05-05 18:43 | 33.55289 | -7.43752 | 9587 ft | 283 kts | 49° |
| 2026-05-05 18:43 | 33.56433 | -7.41791 | 10148 ft | 291 kts | 67° |
| 2026-05-05 18:44 | 33.56941 | -7.39414 | 10527 ft | 305 kts | 81° |
| 2026-05-05 18:44 | 33.57355 | -7.36800 | 10834 ft | 325 kts | 79° |
| 2026-05-05 18:44 | 33.57806 | -7.34080 | 11115 ft | 344 kts | 80° |
| 2026-05-05 18:44 | 33.58296 | -7.31145 | 11423 ft | 363 kts | 80° |
| 2026-05-05 18:45 | 33.58801 | -7.28119 | 11671 ft | 382 kts | 79° |
| 2026-05-05 18:45 | 33.59338 | -7.24895 | 12002 ft | 396 kts | 79° |
| 2026-05-05 18:45 | 33.59878 | -7.21658 | 12700 ft | 399 kts | 80° |
| 2026-05-05 18:45 | 33.60423 | -7.18373 | 13325 ft | 403 kts | 80° |
| 2026-05-05 18:46 | 33.60975 | -7.15032 | 13931 ft | 407 kts | 80° |
| 2026-05-05 18:46 | 33.61524 | -7.11716 | 14466 ft | 412 kts | 79° |
| 2026-05-05 18:46 | 33.62025 | -7.08291 | 14990 ft | 418 kts | 81° |
| 2026-05-05 18:46 | 33.62523 | -7.04816 | 15616 ft | 420 kts | 81° |
| 2026-05-05 18:47 | 33.63013 | -7.01383 | 16195 ft | 423 kts | 81° |
| 2026-05-05 18:47 | 33.63520 | -6.97835 | 16733 ft | 427 kts | 81° |
| 2026-05-05 18:47 | 33.64017 | -6.94338 | 17250 ft | 432 kts | 81° |
| 2026-05-05 18:47 | 33.64526 | -6.90759 | 17807 ft | 434 kts | 81° |
| 2026-05-05 18:48 | 33.65063 | -6.87181 | 18327 ft | 437 kts | 79° |
| 2026-05-05 18:48 | 33.65637 | -6.83539 | 18778 ft | 442 kts | 79° |
| 2026-05-05 18:48 | 33.66204 | -6.79917 | 19226 ft | 447 kts | 79° |
| 2026-05-05 18:48 | 33.66783 | -6.76215 | 19749 ft | 449 kts | 79° |
| 2026-05-05 18:49 | 33.67361 | -6.72506 | 20214 ft | 453 kts | 79° |
| 2026-05-05 18:49 | 33.67944 | -6.68757 | 20620 ft | 457 kts | 80° |
| 2026-05-05 18:49 | 33.68536 | -6.64945 | 20989 ft | 463 kts | 79° |
| 2026-05-05 18:49 | 33.69125 | -6.61138 | 21494 ft | 465 kts | 79° |
| 2026-05-05 18:50 | 33.69721 | -6.57284 | 21912 ft | 468 kts | 79° |
| 2026-05-05 18:50 | 33.70311 | -6.53454 | 22317 ft | 471 kts | 79° |
| 2026-05-05 18:50 | 33.70914 | -6.49540 | 22722 ft | 475 kts | 79° |
| 2026-05-05 18:50 | 33.71521 | -6.45591 | 23086 ft | 478 kts | 80° |
| 2026-05-05 18:51 | 33.72125 | -6.41641 | 23479 ft | 482 kts | 79° |
| 2026-05-05 18:51 | 33.72731 | -6.37675 | 23834 ft | 486 kts | 79° |
| 2026-05-05 18:51 | 33.73344 | -6.33649 | 24420 ft | 484 kts | 80° |
| 2026-05-05 18:51 | 33.73956 | -6.29646 | 24753 ft | 488 kts | 80° |
| 2026-05-05 18:52 | 33.74572 | -6.25585 | 24858 ft | 497 kts | 81° |
| 2026-05-05 18:52 | 33.75191 | -6.21494 | 25353 ft | 497 kts | 81° |
| 2026-05-05 18:52 | 33.75814 | -6.17377 | 25689 ft | 500 kts | 81° |
| 2026-05-05 18:52 | 33.76441 | -6.13209 | 25886 ft | 507 kts | 81° |
| 2026-05-05 18:53 | 33.77071 | -6.09041 | 26420 ft | 506 kts | 80° |
| 2026-05-05 18:53 | 33.77699 | -6.04857 | 26673 ft | 510 kts | 80° |
| 2026-05-05 18:53 | 33.78331 | -6.00622 | 26935 ft | 515 kts | 81° |
| 2026-05-05 18:53 | 33.78976 | -5.96307 | 27242 ft | 518 kts | 81° |
| 2026-05-05 18:54 | 33.79610 | -5.92061 | 27569 ft | 521 kts | 81° |
| 2026-05-05 18:54 | 33.80253 | -5.87718 | 27844 ft | 526 kts | 81° |
| 2026-05-05 18:54 | 33.80893 | -5.83390 | 28659 ft | 516 kts | 81° |
| 2026-05-05 18:54 | 33.81532 | -5.79097 | 29005 ft | 519 kts | 81° |
| 2026-05-05 18:55 | 33.82816 | -5.70365 | 29407 ft | 530 kts | 81° |
| 2026-05-05 18:55 | 33.83469 | -5.65911 | 29760 ft | 530 kts | 81° |
| 2026-05-05 18:55 | 33.84113 | -5.61512 | 30085 ft | 532 kts | 81° |
| 2026-05-05 18:56 | 33.84753 | -5.57126 | 30314 ft | 536 kts | 81° |
| 2026-05-05 18:56 | 33.85398 | -5.52681 | 30717 ft | 535 kts | 81° |
| 2026-05-05 18:56 | 33.86046 | -5.48229 | 31132 ft | 535 kts | 81° |
| 2026-05-05 18:56 | 33.86687 | -5.43794 | 31325 ft | 540 kts | 81° |
| 2026-05-05 18:57 | 33.87338 | -5.39295 | 31904 ft | 535 kts | 81° |
| 2026-05-05 18:57 | 33.87974 | -5.34884 | 32141 ft | 539 kts | 82° |
| 2026-05-05 18:57 | 33.88625 | -5.30347 | 32379 ft | 541 kts | 82° |
| 2026-05-05 18:57 | 33.89263 | -5.25862 | 32626 ft | 544 kts | 82° |
| 2026-05-05 18:58 | 33.89905 | -5.21387 | 33059 ft | 541 kts | 82° |
| 2026-05-05 18:58 | 33.90538 | -5.16933 | 33404 ft | 541 kts | 82° |
| 2026-05-05 18:58 | 33.91185 | -5.12390 | 33623 ft | 544 kts | 82° |
| 2026-05-05 18:58 | 33.91824 | -5.07886 | 33886 ft | 546 kts | 82° |
| 2026-05-05 18:59 | 33.92457 | -5.03413 | 34237 ft | 544 kts | 82° |
| 2026-05-05 18:59 | 33.93397 | -4.98924 | 34335 ft | 551 kts | 71° |
| 2026-05-05 18:59 | 33.94725 | -4.94581 | 34542 ft | 552 kts | 70° |
| 2026-05-05 18:59 | 33.96017 | -4.90216 | 35229 ft | 544 kts | 70° |
| 2026-05-05 19:00 | 33.97287 | -4.85912 | 35371 ft | 547 kts | 70° |
| 2026-05-05 19:00 | 33.98558 | -4.81569 | 35311 ft | 550 kts | 70° |
| 2026-05-05 19:00 | 33.99830 | -4.77220 | 35941 ft | 546 kts | 70° |
| 2026-05-05 19:00 | 34.01098 | -4.72893 | 35917 ft | 545 kts | 70° |
| 2026-05-05 19:01 | 34.02354 | -4.68575 | 36319 ft | 541 kts | 70° |
| 2026-05-05 19:01 | 34.03617 | -4.64245 | 36487 ft | 543 kts | 70° |
| 2026-05-05 19:01 | 34.04855 | -4.59978 | 36942 ft | 538 kts | 70° |
| 2026-05-05 19:01 | 34.06099 | -4.55697 | 37485 ft | 532 kts | 70° |
| 2026-05-05 19:02 | 34.07330 | -4.51456 | 37628 ft | 534 kts | 70° |
| 2026-05-05 19:02 | 34.08561 | -4.47199 | 37891 ft | 532 kts | 69° |
| 2026-05-05 19:02 | 34.09784 | -4.42964 | 38098 ft | 534 kts | 70° |
| 2026-05-05 19:02 | 34.11015 | -4.38709 | 37992 ft | 538 kts | 70° |
| 2026-05-05 19:03 | 34.13491 | -4.30114 | 38039 ft | 540 kts | 70° |
| 2026-05-05 19:03 | 34.15962 | -4.21498 | 38024 ft | 544 kts | 70° |
| 2026-05-05 19:04 | 34.18435 | -4.12736 | 38026 ft | 547 kts | 71° |
| 2026-05-05 19:04 | 34.20846 | -4.03991 | 38028 ft | 546 kts | 71° |
| 2026-05-05 19:05 | 34.23245 | -3.95260 | 38004 ft | 539 kts | 71° |
| 2026-05-05 19:05 | 34.25615 | -3.86606 | 37990 ft | 541 kts | 71° |
| 2026-05-05 19:06 | 34.27987 | -3.77946 | 38001 ft | 542 kts | 71° |
| 2026-05-05 19:06 | 34.30362 | -3.69210 | 38026 ft | 544 kts | 71° |
| 2026-05-05 19:07 | 34.32734 | -3.60485 | 37997 ft | 545 kts | 71° |
| 2026-05-05 19:07 | 34.35099 | -3.51750 | 37992 ft | 537 kts | 71° |
| 2026-05-05 19:08 | 34.37472 | -3.43067 | 38035 ft | 543 kts | 70° |
| 2026-05-05 19:08 | 34.39892 | -3.34312 | 38017 ft | 546 kts | 71° |
| 2026-05-05 19:09 | 34.42310 | -3.25533 | 37983 ft | 547 kts | 71° |
| 2026-05-05 19:09 | 34.44728 | -3.16724 | 37981 ft | 549 kts | 71° |
| 2026-05-05 19:10 | 34.47137 | -3.07912 | 37985 ft | 550 kts | 71° |
| 2026-05-05 19:10 | 34.49563 | -2.99020 | 37990 ft | 551 kts | 71° |
| 2026-05-05 19:11 | 34.51978 | -2.90127 | 37978 ft | 552 kts | 71° |
| 2026-05-05 19:11 | 34.54373 | -2.81292 | 37972 ft | 552 kts | 71° |
| 2026-05-05 19:12 | 34.56793 | -2.72364 | 37989 ft | 552 kts | 71° |
| 2026-05-05 19:12 | 34.59229 | -2.63468 | 37981 ft | 553 kts | 71° |
| 2026-05-05 19:13 | 34.61628 | -2.54573 | 37976 ft | 554 kts | 71° |
| 2026-05-05 19:13 | 34.64017 | -2.45608 | 38001 ft | 554 kts | 71° |
| 2026-05-05 19:14 | 34.66391 | -2.36671 | 38021 ft | 554 kts | 71° |
| 2026-05-05 19:14 | 34.68759 | -2.27726 | 38009 ft | 549 kts | 72° |
| 2026-05-05 19:15 | 34.71093 | -2.18882 | 38001 ft | 548 kts | 72° |
| 2026-05-05 19:15 | 34.73423 | -2.10011 | 37985 ft | 547 kts | 72° |
| 2026-05-05 19:16 | 34.75737 | -2.01185 | 37995 ft | 547 kts | 72° |
| 2026-05-05 19:16 | 34.78843 | -1.92720 | 38017 ft | 542 kts | 53° |
| 2026-05-05 19:17 | 34.83699 | -1.85706 | 38001 ft | 540 kts | 48° |
| 2026-05-05 19:17 | 34.85827 | -1.81934 | 37986 ft | 544 kts | 59° |
| 2026-05-05 19:17 | 34.87471 | -1.77710 | 38036 ft | 545 kts | 64° |
| 2026-05-05 19:18 | 34.90752 | -1.69298 | 38024 ft | 546 kts | 63° |
| 2026-05-05 19:18 | 34.94058 | -1.60963 | 38000 ft | 546 kts | 62° |
| 2026-05-05 19:19 | 34.97389 | -1.52556 | 38006 ft | 543 kts | 63° |
| 2026-05-05 19:19 | 35.00661 | -1.44272 | 38020 ft | 542 kts | 62° |
| 2026-05-05 19:20 | 35.03961 | -1.35899 | 38013 ft | 542 kts | 62° |
| 2026-05-05 19:20 | 35.07250 | -1.27541 | 37986 ft | 542 kts | 63° |
| 2026-05-05 19:21 | 35.10502 | -1.19237 | 37996 ft | 541 kts | 63° |
| 2026-05-05 19:21 | 35.13765 | -1.10900 | 37997 ft | 542 kts | 63° |
| 2026-05-05 19:22 | 35.17026 | -1.02539 | 37994 ft | 542 kts | 63° |
| 2026-05-05 19:22 | 35.20282 | -0.94168 | 37986 ft | 540 kts | 63° |
| 2026-05-05 19:23 | 35.23528 | -0.85811 | 37954 ft | 540 kts | 63° |
| 2026-05-05 19:23 | 35.26747 | -0.77489 | 37955 ft | 540 kts | 63° |
| 2026-05-05 19:24 | 35.29984 | -0.69102 | 37971 ft | 540 kts | 63° |
| 2026-05-05 19:24 | 35.33189 | -0.60781 | 37965 ft | 537 kts | 63° |
| 2026-05-05 19:25 | 35.36401 | -0.52417 | 37971 ft | 537 kts | 63° |
| 2026-05-05 19:25 | 35.39585 | -0.44104 | 37966 ft | 539 kts | 63° |
| 2026-05-05 19:26 | 35.42781 | -0.35741 | 37956 ft | 538 kts | 63° |
| 2026-05-05 19:26 | 35.45976 | -0.27352 | 37966 ft | 539 kts | 64° |
| 2026-05-05 19:27 | 35.49147 | -0.19010 | 37958 ft | 534 kts | 64° |
| 2026-05-05 19:27 | 35.52313 | -0.10661 | 37955 ft | 535 kts | 64° |
| 2026-05-05 19:28 | 35.55460 | -0.02332 | 37954 ft | 536 kts | 64° |
| 2026-05-05 19:28 | 35.58611 | 0.06018 | 37961 ft | 537 kts | 64° |
| 2026-05-05 19:29 | 35.61762 | 0.14396 | 37968 ft | 537 kts | 64° |
| 2026-05-05 19:29 | 35.64915 | 0.22802 | 37974 ft | 535 kts | 64° |
| 2026-05-05 19:30 | 35.68046 | 0.31174 | 37971 ft | 536 kts | 64° |
| 2026-05-05 19:30 | 35.71181 | 0.39576 | 37959 ft | 536 kts | 64° |
| 2026-05-05 19:31 | 35.74285 | 0.47919 | 37949 ft | 533 kts | 64° |
| 2026-05-05 19:31 | 35.77386 | 0.56267 | 37956 ft | 533 kts | 64° |
| 2026-05-05 19:32 | 35.80484 | 0.64638 | 37963 ft | 533 kts | 64° |
| 2026-05-05 19:32 | 35.83568 | 0.72988 | 37958 ft | 533 kts | 65° |
| 2026-05-05 19:33 | 35.86650 | 0.81363 | 37955 ft | 533 kts | 64° |
| 2026-05-05 19:33 | 35.89715 | 0.89708 | 37961 ft | 532 kts | 64° |
| 2026-05-05 19:34 | 35.92766 | 0.98033 | 37961 ft | 531 kts | 65° |
| 2026-05-05 19:35 | 35.97349 | 1.10589 | 37935 ft | 530 kts | 65° |
| 2026-05-05 19:35 | 36.00371 | 1.18899 | 37932 ft | 531 kts | 65° |
| 2026-05-05 19:36 | 36.03418 | 1.27294 | 38008 ft | 531 kts | 65° |
| 2026-05-05 19:36 | 36.06446 | 1.35661 | 37986 ft | 528 kts | 65° |
| 2026-05-05 19:37 | 36.09466 | 1.44028 | 37989 ft | 530 kts | 65° |
| 2026-05-05 19:37 | 36.12024 | 1.52578 | 37983 ft | 528 kts | 79° |
| 2026-05-05 19:38 | 36.13017 | 1.61617 | 37986 ft | 529 kts | 82° |
| 2026-05-05 19:38 | 36.14084 | 1.70706 | 37971 ft | 528 kts | 83° |
| 2026-05-05 19:39 | 36.15144 | 1.79713 | 37969 ft | 527 kts | 83° |
| 2026-05-05 19:39 | 36.16206 | 1.88772 | 37981 ft | 528 kts | 83° |
| 2026-05-05 19:40 | 36.17262 | 1.97845 | 37994 ft | 528 kts | 82° |
| 2026-05-05 19:40 | 36.18306 | 2.06839 | 37990 ft | 526 kts | 83° |
| 2026-05-05 19:41 | 36.19344 | 2.15851 | 37957 ft | 526 kts | 83° |
| 2026-05-05 19:41 | 36.20377 | 2.24869 | 37973 ft | 528 kts | 82° |
| 2026-05-05 19:42 | 36.21409 | 2.33950 | 37968 ft | 526 kts | 82° |
| 2026-05-05 19:42 | 36.22431 | 2.42984 | 37971 ft | 527 kts | 82° |
| 2026-05-05 19:43 | 36.23438 | 2.51973 | 37947 ft | 525 kts | 83° |
| 2026-05-05 19:43 | 36.24440 | 2.60966 | 37968 ft | 525 kts | 83° |
| 2026-05-05 19:44 | 36.25433 | 2.69965 | 38015 ft | 525 kts | 83° |
| 2026-05-05 19:44 | 36.26428 | 2.79038 | 38023 ft | 526 kts | 83° |
| 2026-05-05 19:45 | 36.27405 | 2.88029 | 38031 ft | 523 kts | 83° |
| 2026-05-05 19:45 | 36.28373 | 2.97007 | 38009 ft | 524 kts | 83° |
| 2026-05-05 19:46 | 36.29340 | 3.06030 | 38017 ft | 525 kts | 83° |
| 2026-05-05 19:46 | 36.30296 | 3.15017 | 37996 ft | 524 kts | 83° |
| 2026-05-05 19:47 | 36.31247 | 3.24010 | 37965 ft | 524 kts | 83° |
| 2026-05-05 19:47 | 36.32193 | 3.33037 | 37980 ft | 524 kts | 83° |
| 2026-05-05 19:48 | 36.33132 | 3.42060 | 37931 ft | 523 kts | 83° |
| 2026-05-05 19:48 | 36.34057 | 3.51003 | 37986 ft | 524 kts | 83° |
| 2026-05-05 19:49 | 36.34981 | 3.60025 | 37972 ft | 523 kts | 83° |
| 2026-05-05 19:49 | 36.35898 | 3.69029 | 37982 ft | 523 kts | 84° |
| 2026-05-05 19:50 | 36.36804 | 3.78023 | 37954 ft | 523 kts | 84° |
| 2026-05-05 19:50 | 36.37706 | 3.87004 | 37973 ft | 522 kts | 84° |
| 2026-05-05 19:51 | 36.38602 | 3.96012 | 37982 ft | 522 kts | 84° |
| 2026-05-05 19:51 | 36.39489 | 4.05004 | 38029 ft | 523 kts | 84° |
| 2026-05-05 19:52 | 36.40368 | 4.13970 | 38017 ft | 523 kts | 84° |
| 2026-05-05 19:52 | 36.41245 | 4.22984 | 37997 ft | 523 kts | 84° |
| 2026-05-05 19:53 | 36.42116 | 4.32023 | 38013 ft | 524 kts | 84° |
| 2026-05-05 19:53 | 36.42977 | 4.41042 | 38043 ft | 525 kts | 84° |
| 2026-05-05 19:54 | 36.43842 | 4.50136 | 37993 ft | 524 kts | 84° |
| 2026-05-05 19:54 | 36.44689 | 4.59150 | 38015 ft | 523 kts | 84° |
| 2026-05-05 19:55 | 36.45529 | 4.68160 | 38003 ft | 524 kts | 85° |
| 2026-05-05 19:55 | 36.46366 | 4.77204 | 38050 ft | 524 kts | 84° |
| 2026-05-05 19:56 | 36.47203 | 4.86287 | 38014 ft | 523 kts | 85° |
| 2026-05-05 19:56 | 36.48019 | 4.95266 | 37980 ft | 523 kts | 84° |
| 2026-05-05 19:57 | 36.48445 | 5.04372 | 37994 ft | 520 kts | 94° |
| 2026-05-05 19:57 | 36.48312 | 5.13444 | 37998 ft | 522 kts | 92° |
| 2026-05-05 19:58 | 36.48212 | 5.22518 | 38010 ft | 522 kts | 92° |
| 2026-05-05 19:58 | 36.48107 | 5.31528 | 38069 ft | 522 kts | 92° |
| 2026-05-05 19:59 | 36.47994 | 5.40636 | 37971 ft | 523 kts | 92° |
| 2026-05-05 19:59 | 36.47874 | 5.49683 | 38092 ft | 520 kts | 92° |
| 2026-05-05 20:00 | 36.47752 | 5.58696 | 38041 ft | 522 kts | 92° |
| 2026-05-05 20:00 | 36.47615 | 5.67792 | 38114 ft | 522 kts | 93° |
| 2026-05-05 20:00 | 36.47546 | 5.72340 | 37988 ft | 521 kts | 92° |
| 2026-05-05 20:01 | 36.47476 | 5.76853 | 38045 ft | 519 kts | 93° |
| 2026-05-05 20:01 | 36.47401 | 5.81305 | 38194 ft | 520 kts | 92° |
| 2026-05-05 20:01 | 36.47331 | 5.85832 | 37923 ft | 519 kts | 93° |
| 2026-05-05 20:01 | 36.47253 | 5.90332 | 38181 ft | 519 kts | 92° |
| 2026-05-05 20:02 | 36.47176 | 5.94854 | 37925 ft | 521 kts | 92° |
| 2026-05-05 20:02 | 36.47094 | 5.99393 | 38082 ft | 516 kts | 93° |
| 2026-05-05 20:02 | 36.47015 | 6.03877 | 37780 ft | 519 kts | 92° |
| 2026-05-05 20:02 | 36.46931 | 6.08368 | 38082 ft | 514 kts | 93° |
| 2026-05-05 20:03 | 36.46846 | 6.12856 | 37954 ft | 519 kts | 92° |
| 2026-05-05 20:03 | 36.46759 | 6.17336 | 37826 ft | 522 kts | 92° |
| 2026-05-05 20:03 | 36.46672 | 6.21894 | 38239 ft | 517 kts | 92° |
| 2026-05-05 20:03 | 36.46581 | 6.26375 | 37803 ft | 523 kts | 92° |
| 2026-05-05 20:04 | 36.46491 | 6.30925 | 38247 ft | 516 kts | 93° |
| 2026-05-05 20:04 | 36.46395 | 6.35428 | 37876 ft | 521 kts | 92° |
| 2026-05-05 20:04 | 36.46304 | 6.39933 | 38050 ft | 516 kts | 93° |
| 2026-05-05 20:05 | 36.46104 | 6.48933 | 37913 ft | 519 kts | 92° |
| 2026-05-05 20:05 | 36.46007 | 6.53425 | 38127 ft | 518 kts | 92° |
| 2026-05-05 20:05 | 36.45906 | 6.57896 | 38157 ft | 522 kts | 92° |
| 2026-05-05 20:05 | 36.45802 | 6.62439 | 37987 ft | 519 kts | 92° |
| 2026-05-05 20:06 | 36.45696 | 6.66959 | 38087 ft | 518 kts | 93° |
| 2026-05-05 20:06 | 36.45590 | 6.71446 | 37957 ft | 519 kts | 93° |
| 2026-05-05 20:06 | 36.45480 | 6.75973 | 38050 ft | 516 kts | 93° |
| 2026-05-05 20:07 | 36.45260 | 6.84955 | 38010 ft | 518 kts | 94° |
| 2026-05-05 20:07 | 36.45030 | 6.93965 | 38029 ft | 515 kts | 93° |
| 2026-05-05 20:08 | 36.44795 | 7.02942 | 38025 ft | 517 kts | 93° |
| 2026-05-05 20:08 | 36.44554 | 7.11882 | 38030 ft | 515 kts | 93° |
| 2026-05-05 20:09 | 36.44308 | 7.20832 | 38021 ft | 515 kts | 93° |
| 2026-05-05 20:09 | 36.44053 | 7.29786 | 38005 ft | 515 kts | 93° |
| 2026-05-05 20:10 | 36.43791 | 7.38776 | 37992 ft | 516 kts | 93° |
| 2026-05-05 20:10 | 36.43523 | 7.47727 | 38015 ft | 514 kts | 93° |
| 2026-05-05 20:11 | 36.43249 | 7.56668 | 38004 ft | 514 kts | 93° |
| 2026-05-05 20:11 | 36.42970 | 7.65570 | 38014 ft | 513 kts | 94° |
| 2026-05-05 20:12 | 36.42683 | 7.74486 | 38015 ft | 510 kts | 94° |
| 2026-05-05 20:12 | 36.42390 | 7.83383 | 38040 ft | 511 kts | 93° |
| 2026-05-05 20:13 | 36.42091 | 7.92268 | 38040 ft | 512 kts | 93° |
| 2026-05-05 20:13 | 36.41788 | 8.01118 | 38021 ft | 512 kts | 93° |
| 2026-05-05 20:14 | 36.41473 | 8.10046 | 38050 ft | 513 kts | 93° |
| 2026-05-05 20:14 | 36.41153 | 8.18985 | 38015 ft | 513 kts | 93° |
| 2026-05-05 20:15 | 36.40825 | 8.27941 | 38030 ft | 513 kts | 94° |
| 2026-05-05 20:15 | 36.40677 | 8.36858 | 37992 ft | 514 kts | 84° |
| 2026-05-05 20:15 | 36.41379 | 8.41221 | 38022 ft | 513 kts | 72° |
| 2026-05-05 20:16 | 36.42588 | 8.45418 | 38036 ft | 513 kts | 70° |
| 2026-05-05 20:16 | 36.44782 | 8.53936 | 37994 ft | 514 kts | 72° |
| 2026-05-05 20:17 | 36.46898 | 8.62482 | 38018 ft | 515 kts | 72° |
| 2026-05-05 20:17 | 36.49016 | 8.71096 | 37974 ft | 513 kts | 72° |
| 2026-05-05 20:18 | 36.51108 | 8.79630 | 37976 ft | 514 kts | 72° |
| 2026-05-05 20:18 | 36.53189 | 8.88147 | 37990 ft | 514 kts | 72° |
| 2026-05-05 20:19 | 36.55273 | 8.96707 | 37977 ft | 513 kts | 72° |
| 2026-05-05 20:19 | 36.57359 | 9.05293 | 37991 ft | 515 kts | 72° |
| 2026-05-05 20:20 | 36.59441 | 9.13904 | 38040 ft | 515 kts | 72° |
| 2026-05-05 20:20 | 36.61502 | 9.22465 | 38040 ft | 512 kts | 73° |
| 2026-05-05 20:21 | 36.63564 | 9.31066 | 38017 ft | 511 kts | 73° |
| 2026-05-05 20:21 | 36.65597 | 9.39582 | 38025 ft | 512 kts | 72° |
| 2026-05-05 20:22 | 36.66864 | 9.44905 | 37980 ft | 513 kts | 73° |
| 2026-05-05 20:22 | 36.67829 | 9.48977 | 38007 ft | 510 kts | 72° |
| 2026-05-05 20:22 | 36.68499 | 9.51802 | 38205 ft | 511 kts | 72° |
| 2026-05-05 20:23 | 36.69504 | 9.56043 | 37950 ft | 513 kts | 73° |
| 2026-05-05 20:23 | 36.70508 | 9.60301 | 38216 ft | 504 kts | 73° |
| 2026-05-05 20:23 | 36.71510 | 9.64543 | 38116 ft | 510 kts | 73° |
| 2026-05-05 20:23 | 36.72527 | 9.68863 | 37875 ft | 510 kts | 73° |
| 2026-05-05 20:24 | 36.73511 | 9.73060 | 38116 ft | 506 kts | 73° |
| 2026-05-05 20:24 | 36.74520 | 9.77358 | 37896 ft | 511 kts | 73° |
| 2026-05-05 20:24 | 36.75524 | 9.81646 | 38023 ft | 509 kts | 73° |
| 2026-05-05 20:25 | 36.77522 | 9.90196 | 37965 ft | 510 kts | 73° |
| 2026-05-05 20:25 | 36.79502 | 9.98714 | 37955 ft | 507 kts | 73° |
| 2026-05-05 20:26 | 36.81478 | 10.07234 | 37964 ft | 507 kts | 73° |
| 2026-05-05 20:26 | 36.83430 | 10.15686 | 37967 ft | 504 kts | 73° |
| 2026-05-05 20:27 | 36.85225 | 10.24182 | 37945 ft | 505 kts | 82° |
| 2026-05-05 20:27 | 36.85688 | 10.33028 | 37960 ft | 506 kts | 86° |
| 2026-05-05 20:28 | 36.86147 | 10.41802 | 37959 ft | 505 kts | 86° |
| 2026-05-05 20:28 | 36.86613 | 10.50659 | 37988 ft | 505 kts | 86° |
| 2026-05-05 20:29 | 36.87069 | 10.59439 | 38004 ft | 504 kts | 86° |
| 2026-05-05 20:29 | 36.87521 | 10.68243 | 37987 ft | 505 kts | 87° |
| 2026-05-05 20:30 | 36.87966 | 10.77047 | 37980 ft | 505 kts | 87° |
| 2026-05-05 20:30 | 36.88402 | 10.85807 | 38017 ft | 504 kts | 87° |
| 2026-05-05 20:31 | 36.88835 | 10.94650 | 38047 ft | 505 kts | 87° |
| 2026-05-05 20:31 | 36.89290 | 11.03387 | 37953 ft | 501 kts | 83° |
| 2026-05-05 20:31 | 36.90053 | 11.07678 | 38033 ft | 501 kts | 71° |
| 2026-05-05 20:32 | 36.91484 | 11.11673 | 38052 ft | 501 kts | 59° |
| 2026-05-05 20:32 | 36.93516 | 11.15201 | 37985 ft | 500 kts | 46° |
| 2026-05-05 20:32 | 36.96050 | 11.18276 | 38071 ft | 499 kts | 42° |
| 2026-05-05 20:33 | 37.00821 | 11.24645 | 38019 ft | 502 kts | 46° |
| 2026-05-05 20:33 | 37.05527 | 11.31203 | 38031 ft | 501 kts | 46° |
| 2026-05-05 20:34 | 37.10232 | 11.37789 | 38034 ft | 501 kts | 46° |
| 2026-05-05 20:34 | 37.14896 | 11.44336 | 38037 ft | 499 kts | 46° |
| 2026-05-05 20:35 | 37.19572 | 11.50911 | 38026 ft | 500 kts | 47° |
| 2026-05-05 20:35 | 37.24220 | 11.57479 | 38006 ft | 501 kts | 46° |
| 2026-05-05 20:36 | 37.28901 | 11.64106 | 38041 ft | 501 kts | 47° |
| 2026-05-05 20:36 | 37.33545 | 11.70697 | 38058 ft | 499 kts | 47° |
| 2026-05-05 20:37 | 37.38197 | 11.77311 | 38037 ft | 500 kts | 47° |
| 2026-05-05 20:37 | 37.42809 | 11.83880 | 38041 ft | 500 kts | 47° |
| 2026-05-05 20:38 | 37.47461 | 11.90521 | 38051 ft | 500 kts | 47° |
| 2026-05-05 20:38 | 37.52105 | 11.97175 | 38030 ft | 499 kts | 49° |
| 2026-05-05 20:38 | 37.54087 | 12.00753 | 38057 ft | 501 kts | 60° |
| 2026-05-05 20:39 | 37.55488 | 12.04864 | 38062 ft | 501 kts | 72° |
| 2026-05-05 20:39 | 37.57720 | 12.13221 | 38041 ft | 503 kts | 70° |
| 2026-05-05 20:40 | 37.60099 | 12.21614 | 38061 ft | 503 kts | 70° |
| 2026-05-05 20:40 | 37.62471 | 12.29967 | 38050 ft | 503 kts | 70° |
| 2026-05-05 20:41 | 37.64844 | 12.38341 | 38007 ft | 503 kts | 70° |
| 2026-05-05 20:41 | 37.67207 | 12.46711 | 38035 ft | 502 kts | 70° |
| 2026-05-05 20:42 | 37.69562 | 12.55076 | 38125 ft | 502 kts | 70° |
| 2026-05-05 20:42 | 37.70732 | 12.59244 | 38731 ft | 489 kts | 70° |
| 2026-05-05 20:42 | 37.71869 | 12.63298 | 39142 ft | 486 kts | 70° |
| 2026-05-05 20:42 | 37.73013 | 12.67382 | 38887 ft | 492 kts | 70° |
| 2026-05-05 20:43 | 37.74155 | 12.71469 | 39140 ft | 490 kts | 70° |
| 2026-05-05 20:43 | 37.75304 | 12.75585 | 38971 ft | 494 kts | 70° |
| 2026-05-05 20:43 | 37.76444 | 12.79678 | 39058 ft | 491 kts | 70° |
| 2026-05-05 20:44 | 37.78734 | 12.87914 | 39035 ft | 490 kts | 70° |
| 2026-05-05 20:44 | 37.81005 | 12.96108 | 39043 ft | 490 kts | 70° |
| 2026-05-05 20:45 | 37.84400 | 13.08402 | 39052 ft | 490 kts | 70° |
| 2026-05-05 20:45 | 37.86649 | 13.16583 | 39085 ft | 490 kts | 70° |
| 2026-05-05 20:46 | 37.88907 | 13.24817 | 39100 ft | 491 kts | 70° |
| 2026-05-05 20:46 | 37.91157 | 13.33053 | 39097 ft | 490 kts | 70° |
| 2026-05-05 20:47 | 37.93396 | 13.41269 | 39035 ft | 489 kts | 70° |
| 2026-05-05 20:47 | 37.95626 | 13.49484 | 39077 ft | 489 kts | 70° |
| 2026-05-05 20:48 | 37.97847 | 13.57685 | 39051 ft | 489 kts | 70° |
| 2026-05-05 20:48 | 38.00063 | 13.65902 | 39067 ft | 489 kts | 71° |
| 2026-05-05 20:49 | 38.02279 | 13.74138 | 39066 ft | 490 kts | 71° |
| 2026-05-05 20:49 | 38.04489 | 13.82379 | 39042 ft | 491 kts | 71° |
| 2026-05-05 20:50 | 38.06691 | 13.90617 | 39045 ft | 491 kts | 71° |
| 2026-05-05 20:50 | 38.08895 | 13.98898 | 39072 ft | 491 kts | 70° |
| 2026-05-05 20:51 | 38.11092 | 14.07170 | 39047 ft | 491 kts | 70° |
| 2026-05-05 20:51 | 38.13280 | 14.15434 | 39044 ft | 490 kts | 70° |
| 2026-05-05 20:52 | 38.15450 | 14.23661 | 39041 ft | 490 kts | 70° |
| 2026-05-05 20:52 | 38.17636 | 14.31971 | 39051 ft | 491 kts | 70° |
| 2026-05-05 20:53 | 38.19805 | 14.40245 | 39074 ft | 489 kts | 70° |
| 2026-05-05 20:53 | 38.21962 | 14.48501 | 39084 ft | 491 kts | 70° |
| 2026-05-05 20:54 | 38.24142 | 14.56875 | 39050 ft | 493 kts | 70° |
| 2026-05-05 20:54 | 38.26304 | 14.65207 | 39046 ft | 491 kts | 71° |
| 2026-05-05 20:55 | 38.28446 | 14.73488 | 39055 ft | 494 kts | 71° |
| 2026-05-05 20:55 | 38.30608 | 14.81874 | 39060 ft | 492 kts | 71° |
| 2026-05-05 20:56 | 38.32769 | 14.90291 | 39055 ft | 494 kts | 71° |
| 2026-05-05 20:56 | 38.34909 | 14.98643 | 39054 ft | 493 kts | 71° |
| 2026-05-05 20:57 | 38.37040 | 15.06989 | 39054 ft | 494 kts | 71° |
| 2026-05-05 20:57 | 38.39162 | 15.15336 | 39069 ft | 493 kts | 71° |
| 2026-05-05 20:58 | 38.41290 | 15.23729 | 39066 ft | 494 kts | 71° |
| 2026-05-05 20:58 | 38.43423 | 15.32167 | 39058 ft | 494 kts | 70° |
| 2026-05-05 20:59 | 38.45535 | 15.40556 | 39064 ft | 494 kts | 70° |
| 2026-05-05 20:59 | 38.47643 | 15.48966 | 39077 ft | 492 kts | 70° |
| 2026-05-05 21:00 | 38.49748 | 15.57374 | 39075 ft | 492 kts | 70° |
| 2026-05-05 21:00 | 38.51837 | 15.65766 | 39082 ft | 492 kts | 71° |
| 2026-05-05 21:01 | 38.53931 | 15.74195 | 39076 ft | 492 kts | 71° |
| 2026-05-05 21:01 | 38.56004 | 15.82571 | 39062 ft | 491 kts | 71° |
| 2026-05-05 21:02 | 38.58077 | 15.90980 | 39092 ft | 492 kts | 70° |
| 2026-05-05 21:02 | 38.60148 | 15.99406 | 39102 ft | 493 kts | 70° |
| 2026-05-05 21:03 | 38.62219 | 16.07861 | 39085 ft | 493 kts | 71° |
| 2026-05-05 21:03 | 38.64275 | 16.16290 | 39103 ft | 492 kts | 71° |
| 2026-05-05 21:04 | 38.66334 | 16.24760 | 39086 ft | 492 kts | 70° |
| 2026-05-05 21:04 | 38.68371 | 16.33164 | 39084 ft | 492 kts | 70° |
| 2026-05-05 21:05 | 38.70404 | 16.41589 | 39105 ft | 491 kts | 70° |
| 2026-05-05 21:05 | 38.72423 | 16.49969 | 39081 ft | 491 kts | 70° |
| 2026-05-05 21:06 | 38.74443 | 16.58395 | 39085 ft | 493 kts | 70° |
| 2026-05-05 21:06 | 38.76458 | 16.66832 | 39095 ft | 491 kts | 70° |
| 2026-05-05 21:07 | 38.78467 | 16.75274 | 39073 ft | 490 kts | 70° |
| 2026-05-05 21:07 | 38.80457 | 16.83663 | 39039 ft | 490 kts | 70° |
| 2026-05-05 21:08 | 38.82439 | 16.92042 | 39067 ft | 490 kts | 70° |
| 2026-05-05 21:08 | 38.84412 | 17.00420 | 39107 ft | 489 kts | 70° |
| 2026-05-05 21:09 | 38.86389 | 17.08848 | 39119 ft | 488 kts | 70° |
| 2026-05-05 21:09 | 38.88346 | 17.17223 | 39110 ft | 486 kts | 70° |
| 2026-05-05 21:10 | 38.90290 | 17.25563 | 39105 ft | 486 kts | 70° |
| 2026-05-05 21:10 | 38.92252 | 17.34012 | 39070 ft | 488 kts | 70° |
| 2026-05-05 21:11 | 38.94178 | 17.42346 | 39099 ft | 486 kts | 69° |
| 2026-05-05 21:11 | 38.96121 | 17.50767 | 39087 ft | 486 kts | 70° |
| 2026-05-05 21:12 | 38.98043 | 17.59146 | 39058 ft | 486 kts | 69° |
| 2026-05-05 21:12 | 38.99959 | 17.67519 | 39054 ft | 485 kts | 70° |
| 2026-05-05 21:13 | 39.01861 | 17.75863 | 39065 ft | 484 kts | 70° |
| 2026-05-05 21:13 | 39.03766 | 17.84256 | 39033 ft | 482 kts | 70° |
| 2026-05-05 21:14 | 39.05649 | 17.92572 | 39063 ft | 483 kts | 70° |
| 2026-05-05 21:14 | 39.07524 | 18.00896 | 39074 ft | 483 kts | 70° |
| 2026-05-05 21:15 | 39.09410 | 18.09282 | 39062 ft | 482 kts | 69° |
| 2026-05-05 21:15 | 39.11280 | 18.17642 | 39065 ft | 482 kts | 69° |
| 2026-05-05 21:16 | 39.13142 | 18.26001 | 39076 ft | 484 kts | 69° |
| 2026-05-05 21:16 | 39.15004 | 18.34383 | 39081 ft | 483 kts | 69° |
| 2026-05-05 21:17 | 39.16851 | 18.42727 | 39076 ft | 483 kts | 69° |
| 2026-05-05 21:17 | 39.18704 | 18.51139 | 39090 ft | 482 kts | 69° |
| 2026-05-05 21:18 | 39.20549 | 18.59536 | 39089 ft | 483 kts | 69° |
| 2026-05-05 21:18 | 39.22392 | 18.67961 | 39080 ft | 484 kts | 70° |
| 2026-05-05 21:19 | 39.24237 | 18.76431 | 39087 ft | 485 kts | 70° |
| 2026-05-05 21:19 | 39.26067 | 18.84861 | 39099 ft | 484 kts | 69° |
| 2026-05-05 21:20 | 39.27900 | 18.93336 | 39089 ft | 484 kts | 69° |
| 2026-05-05 21:20 | 39.29610 | 19.01870 | 39080 ft | 488 kts | 75° |
| 2026-05-05 21:21 | 39.30862 | 19.10535 | 39072 ft | 488 kts | 75° |
| 2026-05-05 21:21 | 39.32113 | 19.19216 | 39075 ft | 487 kts | 75° |
| 2026-05-05 21:22 | 39.33348 | 19.27844 | 39109 ft | 489 kts | 75° |
| 2026-05-05 21:22 | 39.34594 | 19.36589 | 39130 ft | 488 kts | 75° |
| 2026-05-05 21:23 | 39.35826 | 19.45298 | 39097 ft | 489 kts | 75° |
| 2026-05-05 21:23 | 39.37056 | 19.54028 | 39114 ft | 489 kts | 75° |
| 2026-05-05 21:24 | 39.38280 | 19.62767 | 39122 ft | 489 kts | 75° |
| 2026-05-05 21:24 | 39.39476 | 19.71509 | 39096 ft | 490 kts | 76° |
| 2026-05-05 21:25 | 39.40688 | 19.80290 | 39050 ft | 492 kts | 75° |
| 2026-05-05 21:25 | 39.41900 | 19.89074 | 39098 ft | 491 kts | 76° |
| 2026-05-05 21:26 | 39.43098 | 19.97820 | 39102 ft | 491 kts | 75° |
| 2026-05-05 21:26 | 39.44331 | 20.06585 | 39107 ft | 487 kts | 71° |
| 2026-05-05 21:27 | 39.45453 | 20.10719 | 39084 ft | 479 kts | 59° |
| 2026-05-05 21:27 | 39.46896 | 20.14625 | 39132 ft | 480 kts | 60° |
| 2026-05-05 21:27 | 39.49684 | 20.22597 | 39097 ft | 481 kts | 60° |
| 2026-05-05 21:28 | 39.52447 | 20.30611 | 39076 ft | 480 kts | 60° |
| 2026-05-05 21:28 | 39.55185 | 20.38577 | 39111 ft | 481 kts | 60° |
| 2026-05-05 21:29 | 39.57931 | 20.46601 | 39129 ft | 482 kts | 60° |
| 2026-05-05 21:29 | 39.60656 | 20.54575 | 39106 ft | 482 kts | 60° |
| 2026-05-05 21:30 | 39.63387 | 20.62594 | 39132 ft | 481 kts | 60° |
| 2026-05-05 21:30 | 39.66120 | 20.70640 | 39168 ft | 483 kts | 61° |
| 2026-05-05 21:31 | 39.68866 | 20.78751 | 39152 ft | 483 kts | 61° |
| 2026-05-05 21:31 | 39.71667 | 20.86717 | 39158 ft | 481 kts | 59° |
| 2026-05-05 21:32 | 39.74559 | 20.94680 | 39016 ft | 481 kts | 59° |
| 2026-05-05 21:32 | 39.75998 | 20.98657 | 39222 ft | 480 kts | 59° |
| 2026-05-05 21:32 | 39.77428 | 21.02611 | 39116 ft | 483 kts | 59° |
| 2026-05-05 21:33 | 39.80304 | 21.10586 | 39298 ft | 479 kts | 59° |
| 2026-05-05 21:33 | 39.81746 | 21.14597 | 39102 ft | 485 kts | 59° |
| 2026-05-05 21:33 | 39.83180 | 21.18590 | 39087 ft | 477 kts | 59° |
| 2026-05-05 21:34 | 39.84598 | 21.22542 | 39252 ft | 479 kts | 59° |
| 2026-05-05 21:34 | 39.86027 | 21.26527 | 38959 ft | 483 kts | 59° |
| 2026-05-05 21:34 | 39.87447 | 21.30499 | 39217 ft | 478 kts | 59° |
| 2026-05-05 21:34 | 39.88868 | 21.34471 | 39161 ft | 484 kts | 59° |
| 2026-05-05 21:35 | 39.91722 | 21.42477 | 39160 ft | 478 kts | 59° |
| 2026-05-05 21:35 | 39.94537 | 21.50393 | 39120 ft | 477 kts | 59° |
| 2026-05-05 21:36 | 39.97363 | 21.58333 | 39110 ft | 478 kts | 59° |
| 2026-05-05 21:36 | 40.00185 | 21.66239 | 39088 ft | 475 kts | 59° |
| 2026-05-05 21:37 | 40.03004 | 21.74153 | 39086 ft | 478 kts | 59° |
| 2026-05-05 21:37 | 40.05829 | 21.82117 | 39074 ft | 478 kts | 59° |
| 2026-05-05 21:38 | 40.08641 | 21.90060 | 39089 ft | 475 kts | 59° |
| 2026-05-05 21:38 | 40.11425 | 21.97944 | 39109 ft | 474 kts | 59° |
| 2026-05-05 21:39 | 40.13693 | 22.06209 | 39093 ft | 481 kts | 66° |
| 2026-05-05 21:39 | 40.15782 | 22.14601 | 39105 ft | 478 kts | 66° |
| 2026-05-05 21:40 | 40.16820 | 22.18747 | 39003 ft | 480 kts | 66° |
| 2026-05-05 21:40 | 40.17859 | 22.22913 | 39088 ft | 478 kts | 66° |
| 2026-05-05 21:40 | 40.19944 | 22.31283 | 39075 ft | 481 kts | 66° |
| 2026-05-05 21:41 | 40.22030 | 22.39691 | 39082 ft | 481 kts | 66° |
| 2026-05-05 21:41 | 40.24102 | 22.48069 | 39037 ft | 477 kts | 66° |
| 2026-05-05 21:42 | 40.26146 | 22.56363 | 39062 ft | 478 kts | 66° |
| 2026-05-05 21:42 | 40.28190 | 22.64688 | 39018 ft | 476 kts | 66° |
| 2026-05-05 21:43 | 40.30238 | 22.73049 | 39017 ft | 478 kts | 67° |
| 2026-05-05 21:43 | 40.32263 | 22.81363 | 39006 ft | 476 kts | 67° |
| 2026-05-05 21:44 | 40.34295 | 22.89718 | 39025 ft | 477 kts | 67° |
| 2026-05-05 21:44 | 40.36313 | 22.98059 | 39011 ft | 477 kts | 67° |
| 2026-05-05 21:45 | 40.38322 | 23.06385 | 39015 ft | 476 kts | 67° |
| 2026-05-05 21:45 | 40.40321 | 23.14696 | 38994 ft | 476 kts | 67° |
| 2026-05-05 21:46 | 40.42331 | 23.23091 | 39002 ft | 477 kts | 67° |
| 2026-05-05 21:46 | 40.44311 | 23.31387 | 39002 ft | 474 kts | 67° |
| 2026-05-05 21:47 | 40.46296 | 23.39735 | 39031 ft | 476 kts | 67° |
| 2026-05-05 21:47 | 40.48269 | 23.48063 | 38990 ft | 476 kts | 67° |
| 2026-05-05 21:48 | 40.50247 | 23.56435 | 39065 ft | 476 kts | 67° |
| 2026-05-05 21:48 | 40.52217 | 23.64814 | 39121 ft | 477 kts | 67° |
| 2026-05-05 21:49 | 40.53218 | 23.69074 | 39002 ft | 479 kts | 68° |
| 2026-05-05 21:49 | 40.54198 | 23.73270 | 39036 ft | 475 kts | 68° |
| 2026-05-05 21:49 | 40.56150 | 23.81625 | 39042 ft | 475 kts | 68° |
| 2026-05-05 21:50 | 40.58113 | 23.90062 | 39054 ft | 476 kts | 68° |
| 2026-05-05 21:50 | 40.60061 | 23.98441 | 39030 ft | 475 kts | 68° |
| 2026-05-05 21:51 | 40.62032 | 24.06795 | 39020 ft | 474 kts | 68° |
| 2026-05-05 21:51 | 40.64001 | 24.15183 | 39036 ft | 477 kts | 68° |
| 2026-05-05 21:52 | 40.66966 | 24.27872 | 39048 ft | 483 kts | 68° |
| 2026-05-05 21:53 | 40.68957 | 24.36438 | 39049 ft | 484 kts | 68° |
| 2026-05-05 21:53 | 40.70935 | 24.44972 | 39061 ft | 486 kts | 68° |
| 2026-05-05 21:54 | 40.72926 | 24.53598 | 39076 ft | 487 kts | 68° |
| 2026-05-05 21:54 | 40.74916 | 24.62256 | 39064 ft | 488 kts | 68° |
| 2026-05-05 21:55 | 40.76891 | 24.70873 | 39079 ft | 488 kts | 68° |
| 2026-05-05 21:55 | 40.78855 | 24.79472 | 39083 ft | 487 kts | 68° |
| 2026-05-05 21:56 | 40.80833 | 24.88163 | 39070 ft | 487 kts | 68° |
| 2026-05-05 21:56 | 40.82776 | 24.96734 | 39070 ft | 486 kts | 68° |
| 2026-05-05 21:57 | 40.84728 | 25.05375 | 38996 ft | 484 kts | 69° |
| 2026-05-05 21:57 | 40.85691 | 25.09657 | 39117 ft | 483 kts | 69° |
| 2026-05-05 21:57 | 40.86662 | 25.13973 | 38952 ft | 486 kts | 69° |
| 2026-05-05 21:58 | 40.88591 | 25.22582 | 39077 ft | 484 kts | 69° |
| 2026-05-05 21:58 | 40.90511 | 25.31187 | 39016 ft | 485 kts | 69° |
| 2026-05-05 21:59 | 40.92439 | 25.39846 | 39053 ft | 485 kts | 68° |
| 2026-05-05 21:59 | 40.94339 | 25.48400 | 39015 ft | 482 kts | 68° |
| 2026-05-05 22:00 | 40.96238 | 25.56989 | 38954 ft | 484 kts | 69° |
| 2026-05-05 22:00 | 40.97192 | 25.61323 | 39055 ft | 481 kts | 69° |
| 2026-05-05 22:00 | 40.98122 | 25.65558 | 38805 ft | 473 kts | 69° |
| 2026-05-05 22:00 | 40.99043 | 25.69748 | 38007 ft | 472 kts | 69° |
| 2026-05-05 22:01 | 40.99960 | 25.73934 | 37572 ft | 464 kts | 69° |
| 2026-05-05 22:01 | 41.00853 | 25.78031 | 37076 ft | 456 kts | 69° |
| 2026-05-05 22:01 | 41.01736 | 25.82067 | 36592 ft | 451 kts | 69° |
| 2026-05-05 22:01 | 41.02609 | 25.86074 | 36163 ft | 445 kts | 68° |
| 2026-05-05 22:02 | 41.03468 | 25.90025 | 35705 ft | 443 kts | 68° |
| 2026-05-05 22:02 | 41.04339 | 25.94024 | 34703 ft | 455 kts | 68° |
| 2026-05-05 22:02 | 41.05220 | 25.98086 | 33432 ft | 468 kts | 68° |
| 2026-05-05 22:02 | 41.06138 | 26.02326 | 31958 ft | 481 kts | 69° |
| 2026-05-05 22:03 | 41.07065 | 26.06632 | 30911 ft | 481 kts | 69° |
| 2026-05-05 22:03 | 41.07976 | 26.10870 | 30357 ft | 472 kts | 68° |
| 2026-05-05 22:03 | 41.08877 | 26.15058 | 29694 ft | 467 kts | 68° |
| 2026-05-05 22:03 | 41.09767 | 26.19188 | 29077 ft | 461 kts | 69° |
| 2026-05-05 22:04 | 41.10650 | 26.23326 | 28452 ft | 456 kts | 69° |
| 2026-05-05 22:04 | 41.11502 | 26.27328 | 27808 ft | 452 kts | 70° |
| 2026-05-05 22:04 | 41.11908 | 26.31527 | 27124 ft | 458 kts | 86° |
| 2026-05-05 22:04 | 41.11407 | 26.35709 | 26542 ft | 461 kts | 102° |
| 2026-05-05 22:05 | 41.10191 | 26.39702 | 25968 ft | 458 kts | 109° |
| 2026-05-05 22:05 | 41.08946 | 26.43619 | 25314 ft | 454 kts | 108° |
| 2026-05-05 22:05 | 41.07733 | 26.47462 | 25040 ft | 440 kts | 108° |
| 2026-05-05 22:05 | 41.06561 | 26.51181 | 25122 ft | 427 kts | 108° |
| 2026-05-05 22:06 | 41.05406 | 26.54868 | 24890 ft | 428 kts | 108° |
| 2026-05-05 22:06 | 41.04259 | 26.58513 | 24618 ft | 418 kts | 108° |
| 2026-05-05 22:06 | 41.03539 | 26.62177 | 24330 ft | 401 kts | 90° |
| 2026-05-05 22:06 | 41.03542 | 26.65828 | 24086 ft | 388 kts | 84° |
| 2026-05-05 22:07 | 41.03611 | 26.69402 | 23827 ft | 380 kts | 84° |
| 2026-05-05 22:07 | 41.03677 | 26.72885 | 23566 ft | 372 kts | 84° |
| 2026-05-05 22:07 | 41.03741 | 26.76341 | 23306 ft | 369 kts | 84° |
| 2026-05-05 22:07 | 41.03806 | 26.79736 | 22991 ft | 366 kts | 84° |
| 2026-05-05 22:08 | 41.03871 | 26.83149 | 22755 ft | 367 kts | 84° |
| 2026-05-05 22:08 | 41.03934 | 26.86552 | 22534 ft | 370 kts | 84° |
| 2026-05-05 22:08 | 41.04299 | 26.89946 | 21974 ft | 363 kts | 67° |
| 2026-05-05 22:08 | 41.05430 | 26.92847 | 21736 ft | 347 kts | 54° |
| 2026-05-05 22:09 | 41.06715 | 26.95640 | 21244 ft | 349 kts | 54° |
| 2026-05-05 22:09 | 41.07972 | 26.98382 | 20802 ft | 347 kts | 54° |
| 2026-05-05 22:09 | 41.09226 | 27.01116 | 20371 ft | 344 kts | 54° |
| 2026-05-05 22:09 | 41.10486 | 27.03864 | 19927 ft | 341 kts | 54° |
| 2026-05-05 22:10 | 41.11710 | 27.06536 | 19516 ft | 337 kts | 54° |
| 2026-05-05 22:10 | 41.12940 | 27.09221 | 19098 ft | 334 kts | 54° |
| 2026-05-05 22:10 | 41.14143 | 27.11849 | 18686 ft | 330 kts | 54° |
| 2026-05-05 22:10 | 41.15331 | 27.14447 | 18271 ft | 327 kts | 54° |
| 2026-05-05 22:11 | 41.16519 | 27.17051 | 17873 ft | 323 kts | 54° |
| 2026-05-05 22:11 | 41.17418 | 27.19756 | 17804 ft | 323 kts | 72° |
| 2026-05-05 22:11 | 41.17457 | 27.22761 | 17709 ft | 324 kts | 96° |
| 2026-05-05 22:11 | 41.16606 | 27.25581 | 17301 ft | 334 kts | 118° |
| 2026-05-05 22:12 | 41.14962 | 27.27808 | 16862 ft | 343 kts | 142° |
| 2026-05-05 22:12 | 41.12855 | 27.29370 | 16420 ft | 345 kts | 148° |
| 2026-05-05 22:12 | 41.10728 | 27.30966 | 15948 ft | 345 kts | 147° |
| 2026-05-05 22:12 | 41.08633 | 27.32589 | 15511 ft | 345 kts | 146° |
| 2026-05-05 22:13 | 41.06556 | 27.34221 | 15056 ft | 345 kts | 146° |
| 2026-05-05 22:13 | 41.04475 | 27.35866 | 14590 ft | 344 kts | 146° |
| 2026-05-05 22:13 | 41.02436 | 27.37480 | 14120 ft | 337 kts | 146° |
| 2026-05-05 22:13 | 41.00429 | 27.39070 | 13686 ft | 331 kts | 146° |
| 2026-05-05 22:14 | 40.98449 | 27.40638 | 13242 ft | 326 kts | 145° |
| 2026-05-05 22:14 | 40.96680 | 27.42414 | 12811 ft | 313 kts | 126° |
| 2026-05-05 22:14 | 40.95592 | 27.44849 | 12411 ft | 297 kts | 105° |
| 2026-05-05 22:14 | 40.94844 | 27.47369 | 12024 ft | 292 kts | 105° |
| 2026-05-05 22:15 | 40.94096 | 27.49866 | 11643 ft | 287 kts | 105° |
| 2026-05-05 22:15 | 40.93373 | 27.52292 | 11293 ft | 284 kts | 105° |
| 2026-05-05 22:15 | 40.92646 | 27.54740 | 10956 ft | 284 kts | 105° |
| 2026-05-05 22:15 | 40.91916 | 27.57200 | 10619 ft | 284 kts | 105° |
| 2026-05-05 22:16 | 40.91191 | 27.59638 | 10302 ft | 284 kts | 105° |
| 2026-05-05 22:16 | 40.90805 | 27.62147 | 10009 ft | 270 kts | 85° |
| 2026-05-05 22:16 | 40.90745 | 27.64592 | 9906 ft | 262 kts | 85° |
| 2026-05-05 22:16 | 40.90676 | 27.67019 | 9602 ft | 262 kts | 86° |
| 2026-05-05 22:17 | 40.90605 | 27.69439 | 9339 ft | 261 kts | 86° |
| 2026-05-05 22:17 | 40.90535 | 27.71858 | 9086 ft | 259 kts | 86° |
| 2026-05-05 22:17 | 40.90464 | 27.74252 | 8997 ft | 257 kts | 86° |
| 2026-05-05 22:17 | 40.90554 | 27.76607 | 9000 ft | 251 kts | 73° |
| 2026-05-05 22:18 | 40.90889 | 27.78894 | 8999 ft | 250 kts | 73° |
| 2026-05-05 22:18 | 40.91211 | 27.81184 | 8998 ft | 251 kts | 73° |
| 2026-05-05 22:18 | 40.91533 | 27.83481 | 9001 ft | 250 kts | 73° |
| 2026-05-05 22:18 | 40.91908 | 27.85727 | 8987 ft | 247 kts | 63° |
| 2026-05-05 22:19 | 40.92890 | 27.87502 | 9003 ft | 236 kts | 33° |
| 2026-05-05 22:19 | 40.94402 | 27.88310 | 9010 ft | 232 kts | 5° |
| 2026-05-05 22:19 | 40.96052 | 27.88370 | 9017 ft | 232 kts | 1° |
| 2026-05-05 22:19 | 40.97662 | 27.88399 | 8996 ft | 231 kts | 1° |
| 2026-05-05 22:20 | 40.99313 | 27.88405 | 9002 ft | 232 kts | 0° |
| 2026-05-05 22:20 | 41.00943 | 27.88398 | 9000 ft | 232 kts | 0° |
| 2026-05-05 22:20 | 41.02573 | 27.88490 | 8991 ft | 233 kts | 11° |
| 2026-05-05 22:20 | 41.04139 | 27.89028 | 9011 ft | 234 kts | 14° |
| 2026-05-05 22:21 | 41.05727 | 27.89567 | 8996 ft | 232 kts | 13° |
| 2026-05-05 22:21 | 41.07315 | 27.90107 | 8998 ft | 233 kts | 14° |
| 2026-05-05 22:21 | 41.08892 | 27.90642 | 8996 ft | 232 kts | 14° |
| 2026-05-05 22:21 | 41.10485 | 27.91183 | 8997 ft | 232 kts | 14° |
| 2026-05-05 22:22 | 41.12060 | 27.91778 | 8988 ft | 234 kts | 22° |
| 2026-05-05 22:22 | 41.13514 | 27.92837 | 9009 ft | 236 kts | 27° |
| 2026-05-05 22:22 | 41.14952 | 27.93908 | 8995 ft | 234 kts | 27° |
| 2026-05-05 22:22 | 41.16398 | 27.94987 | 9000 ft | 235 kts | 27° |
| 2026-05-05 22:23 | 41.17822 | 27.96050 | 8998 ft | 236 kts | 27° |
| 2026-05-05 22:23 | 41.19276 | 27.97135 | 8997 ft | 236 kts | 27° |
| 2026-05-05 22:23 | 41.20703 | 27.98252 | 8989 ft | 237 kts | 34° |
| 2026-05-05 22:23 | 41.21904 | 27.99761 | 9009 ft | 240 kts | 41° |
| 2026-05-05 22:24 | 41.23099 | 28.01315 | 8995 ft | 238 kts | 40° |
| 2026-05-05 22:24 | 41.24289 | 28.02861 | 8998 ft | 239 kts | 41° |
| 2026-05-05 22:24 | 41.25489 | 28.04437 | 8992 ft | 238 kts | 44° |
| 2026-05-05 22:24 | 41.26281 | 28.06418 | 8993 ft | 249 kts | 72° |
| 2026-05-05 22:25 | 41.26211 | 28.08765 | 9013 ft | 265 kts | 101° |
| 2026-05-05 22:25 | 41.25266 | 28.10949 | 8822 ft | 280 kts | 129° |
| 2026-05-05 22:25 | 41.23650 | 28.12396 | 8640 ft | 282 kts | 150° |
| 2026-05-05 22:25 | 41.21963 | 28.13719 | 8452 ft | 275 kts | 141° |
| 2026-05-05 22:26 | 41.20429 | 28.15188 | 8270 ft | 270 kts | 138° |
| 2026-05-05 22:26 | 41.18921 | 28.16713 | 8097 ft | 266 kts | 137° |
| 2026-05-05 22:26 | 41.17480 | 28.18192 | 7933 ft | 261 kts | 137° |
| 2026-05-05 22:26 | 41.16032 | 28.19685 | 7770 ft | 257 kts | 137° |
| 2026-05-05 22:27 | 41.14620 | 28.21138 | 7538 ft | 256 kts | 137° |
| 2026-05-05 22:27 | 41.13208 | 28.22594 | 7311 ft | 255 kts | 138° |
| 2026-05-05 22:27 | 41.11809 | 28.24035 | 7084 ft | 255 kts | 137° |
| 2026-05-05 22:27 | 41.10394 | 28.25491 | 6853 ft | 254 kts | 137° |
| 2026-05-05 22:28 | 41.08997 | 28.26929 | 6624 ft | 253 kts | 137° |
| 2026-05-05 22:28 | 41.07589 | 28.28379 | 6391 ft | 252 kts | 137° |
| 2026-05-05 22:28 | 41.06206 | 28.29802 | 6180 ft | 252 kts | 138° |
| 2026-05-05 22:28 | 41.04826 | 28.31218 | 5949 ft | 251 kts | 139° |
| 2026-05-05 22:29 | 41.03443 | 28.32637 | 5707 ft | 251 kts | 139° |
| 2026-05-05 22:29 | 41.02056 | 28.34060 | 5469 ft | 251 kts | 139° |
| 2026-05-05 22:29 | 41.00666 | 28.35486 | 5218 ft | 251 kts | 139° |
| 2026-05-05 22:29 | 40.99280 | 28.36906 | 5002 ft | 250 kts | 139° |
| 2026-05-05 22:30 | 40.97919 | 28.38319 | 4979 ft | 247 kts | 134° |
| 2026-05-05 22:30 | 40.96922 | 28.40120 | 5012 ft | 241 kts | 114° |
| 2026-05-05 22:30 | 40.96095 | 28.42073 | 4972 ft | 241 kts | 115° |
| 2026-05-05 22:30 | 40.95269 | 28.43993 | 4991 ft | 241 kts | 115° |
| 2026-05-05 22:31 | 40.94429 | 28.45942 | 4999 ft | 241 kts | 115° |
| 2026-05-05 22:31 | 40.93603 | 28.47859 | 5007 ft | 241 kts | 116° |
| 2026-05-05 22:31 | 40.92768 | 28.49793 | 4983 ft | 241 kts | 116° |
| 2026-05-05 22:31 | 40.91933 | 28.51728 | 5001 ft | 241 kts | 116° |
| 2026-05-05 22:32 | 40.91098 | 28.53657 | 4993 ft | 242 kts | 116° |
| 2026-05-05 22:32 | 40.90261 | 28.55591 | 5001 ft | 241 kts | 116° |
| 2026-05-05 22:32 | 40.89480 | 28.57552 | 4967 ft | 240 kts | 104° |
| 2026-05-05 22:32 | 40.89383 | 28.59690 | 4998 ft | 231 kts | 72° |
| 2026-05-05 22:33 | 40.89885 | 28.61685 | 5012 ft | 230 kts | 68° |
| 2026-05-05 22:33 | 40.90404 | 28.63709 | 5001 ft | 231 kts | 68° |
| 2026-05-05 22:33 | 40.90913 | 28.65683 | 4974 ft | 224 kts | 68° |
| 2026-05-05 22:33 | 40.91411 | 28.67610 | 4985 ft | 219 kts | 68° |
| 2026-05-05 22:34 | 40.92211 | 28.69282 | 4986 ft | 214 kts | 37° |
| 2026-05-05 22:34 | 40.93480 | 28.70282 | 5019 ft | 213 kts | 27° |
| 2026-05-05 22:34 | 40.94786 | 28.71249 | 4988 ft | 210 kts | 28° |
| 2026-05-05 22:34 | 40.96048 | 28.72179 | 4978 ft | 201 kts | 28° |
| 2026-05-05 22:35 | 40.97217 | 28.73033 | 4953 ft | 185 kts | 24° |
| 2026-05-05 22:35 | 40.98452 | 28.73269 | 4991 ft | 174 kts | 359° |
| 2026-05-05 22:35 | 40.99654 | 28.73253 | 4996 ft | 172 kts | 1° |
| 2026-05-05 22:35 | 41.00853 | 28.73250 | 4988 ft | 172 kts | 0° |
| 2026-05-05 22:36 | 41.02054 | 28.73238 | 4994 ft | 173 kts | 0° |
| 2026-05-05 22:36 | 41.03275 | 28.73223 | 4828 ft | 175 kts | 0° |
| 2026-05-05 22:36 | 41.04486 | 28.73204 | 4616 ft | 172 kts | 360° |
| 2026-05-05 22:36 | 41.05668 | 28.73185 | 4495 ft | 164 kts | 360° |
| 2026-05-05 22:37 | 41.06791 | 28.73165 | 4247 ft | 159 kts | 360° |
| 2026-05-05 22:37 | 41.07889 | 28.73144 | 4012 ft | 155 kts | 359° |
| 2026-05-05 22:37 | 41.08967 | 28.73123 | 3797 ft | 155 kts | 359° |
| 2026-05-05 22:37 | 41.10051 | 28.73102 | 3583 ft | 154 kts | 359° |
| 2026-05-05 22:38 | 41.11133 | 28.73081 | 3371 ft | 152 kts | 360° |
| 2026-05-05 22:38 | 41.12142 | 28.73060 | 3169 ft | 142 kts | 360° |
| 2026-05-05 22:38 | 41.13126 | 28.73040 | 2961 ft | 140 kts | 0° |
| 2026-05-05 22:38 | 41.14080 | 28.73021 | 2776 ft | 135 kts | 0° |
| 2026-05-05 22:39 | 41.15019 | 28.73004 | 2582 ft | 135 kts | 360° |
| 2026-05-05 22:39 | 41.15955 | 28.72986 | 2400 ft | 135 kts | 360° |
| 2026-05-05 22:39 | 41.16907 | 28.72967 | 2208 ft | 136 kts | 360° |
| 2026-05-05 22:39 | 41.17855 | 28.72947 | 2024 ft | 136 kts | 359° |
| 2026-05-05 22:40 | 41.18805 | 28.72928 | 1835 ft | 136 kts | 359° |
| 2026-05-05 22:40 | 41.19767 | 28.72907 | 1642 ft | 136 kts | 0° |
| 2026-05-05 22:40 | 41.20718 | 28.72889 | 1457 ft | 136 kts | 360° |
| 2026-05-05 22:40 | 41.21674 | 28.72870 | 1270 ft | 137 kts | 360° |
| 2026-05-05 22:41 | 41.22623 | 28.72850 | 1084 ft | 137 kts | 360° |
| 2026-05-05 22:41 | 41.23576 | 28.72832 | 897 ft | 136 kts | 360° |
| 2026-05-05 22:41 | 41.24529 | 28.72812 | 711 ft | 137 kts | 0° |
| 2026-05-05 22:41 | 41.25482 | 28.72793 | 528 ft | 136 kts | 0° |
| 2026-05-05 22:42 | 41.26439 | 28.72773 | 349 ft | 136 kts | 360° |
| 2026-05-05 22:42 | 41.27235 | 28.72754 | 339 ft | 84 kts | 359° |
| 2026-05-05 22:42 | 41.27643 | 28.72748 | 339 ft | 42 kts | 358° |
| 2026-05-05 22:42 | 41.27927 | 28.72765 | 339 ft | 36 kts | 14° |
| 2026-05-05 22:43 | 41.28037 | 28.72820 | 339 ft | 14 kts | 27° |
| 2026-05-05 22:43 | 41.28121 | 28.72893 | 339 ft | 13 kts | 50° |
| 2026-05-05 22:43 | 41.28100 | 28.72959 | 339 ft | 8 kts | 162° |
| 2026-05-05 22:43 | 41.28041 | 28.72968 | 339 ft | 8 kts | 178° |
| 2026-05-05 22:44 | 41.27976 | 28.72970 | 339 ft | 10 kts | 179° |
| 2026-05-05 22:44 | 41.27891 | 28.72970 | 339 ft | 13 kts | 180° |
| 2026-05-05 22:44 | 41.27787 | 28.72970 | 339 ft | 16 kts | 179° |
| 2026-05-05 22:44 | 41.27667 | 28.72973 | 339 ft | 17 kts | 179° |
| 2026-05-05 22:45 | 41.27542 | 28.72977 | 339 ft | 17 kts | 179° |
| 2026-05-05 22:45 | 41.27414 | 28.72979 | 339 ft | 20 kts | 180° |
| 2026-05-05 22:45 | 41.27265 | 28.72981 | 339 ft | 21 kts | 179° |
| 2026-05-05 22:45 | 41.27113 | 28.72985 | 339 ft | 21 kts | 179° |
| 2026-05-05 22:46 | 41.26963 | 28.72987 | 339 ft | 17 kts | 179° |
| 2026-05-05 22:46 | 41.26870 | 28.73007 | 339 ft | 10 kts | 134° |
| 2026-05-05 22:46 | 41.26857 | 28.73104 | 339 ft | 11 kts | 91° |
| 2026-05-05 22:46 | 41.26857 | 28.73219 | 339 ft | 12 kts | 89° |
| 2026-05-05 22:47 | 41.26858 | 28.73340 | 339 ft | 13 kts | 89° |
| 2026-05-05 22:47 | 41.26860 | 28.73463 | 339 ft | 11 kts | 89° |
| 2026-05-05 22:47 | 41.26837 | 28.73527 | 339 ft | 6 kts | 158° |
| 2026-05-05 22:47 | 41.26794 | 28.73535 | 339 ft | 5 kts | 179° |
| 2026-05-05 22:48 | 41.26770 | 28.73535 | 339 ft | 0 kts | 180° |
| 2026-05-05 22:49 | 41.26774 | 28.73534 | 339 ft | 0 kts | 180° |
| 2026-05-05 22:50 | 41.26777 | 28.73535 | 339 ft | 0 kts | 180° |
| 2026-05-05 22:50 | 41.26769 | 28.73537 | 338 ft | 0 kts | 180° |
| 2026-05-05 22:50 | 41.26769 | 28.73534 | 339 ft | 0 kts | 180° |